createdAt,value
2023-01-08T00:02:04.668Z,3.53
2023-01-08T00:04:31.304Z,3.33
2023-01-08T00:06:57.841Z,3.58
2023-01-08T00:09:24.571Z,3.50
2023-01-08T00:11:51.091Z,3.20
2023-01-08T00:14:17.595Z,3.03
2023-01-08T00:16:44.386Z,3.03
2023-01-08T00:19:12.796Z,2.97
2023-01-08T00:21:39.306Z,3.25
2023-01-08T00:24:06.330Z,3.42
2023-01-08T00:26:32.831Z,3.60
2023-01-08T00:28:59.819Z,3.60
2023-01-08T00:31:26.532Z,3.50
2023-01-08T00:33:53.007Z,3.42
2023-01-08T00:36:19.988Z,3.55
2023-01-08T00:38:47.138Z,3.28
2023-01-08T00:41:15.583Z,3.40
2023-01-08T00:43:42.027Z,3.17
2023-01-08T00:46:09.378Z,3.38
2023-01-08T00:48:39.041Z,3.30
2023-01-08T00:51:07.215Z,2.85
2023-01-08T00:53:34.159Z,3.03
2023-01-08T00:56:02.202Z,2.78
2023-01-08T00:58:28.988Z,3.08
2023-01-08T01:00:55.663Z,2.78
2023-01-08T01:03:22.142Z,2.90
2023-01-08T01:05:49.841Z,2.95
2023-01-08T01:08:17.121Z,2.88
2023-01-08T01:10:43.515Z,3.13
2023-01-08T01:13:10.754Z,2.83
2023-01-08T01:15:37.931Z,2.90
2023-01-08T01:18:04.679Z,2.58
2023-01-08T01:20:31.230Z,2.70
2023-01-08T01:22:57.700Z,2.58
2023-01-08T01:25:24.747Z,3.25
2023-01-08T01:27:51.145Z,2.72
2023-01-08T01:30:17.915Z,2.83
2023-01-08T01:32:44.772Z,2.75
2023-01-08T01:35:11.187Z,2.20
2023-01-08T01:37:37.808Z,2.97
2023-01-08T01:40:04.895Z,2.83
2023-01-08T01:42:40.612Z,3.00
2023-01-08T01:45:25.525Z,2.78
2023-01-08T01:48:12.357Z,2.80
2023-01-08T01:50:51.919Z,2.65
2023-01-08T01:53:24.620Z,2.73
2023-01-08T01:56:11.108Z,2.70
2023-01-08T01:58:58.263Z,2.95
2023-01-08T02:01:45.665Z,2.47
2023-01-08T02:04:32.473Z,3.15
2023-01-08T02:07:26.680Z,2.90
2023-01-08T02:10:24.739Z,2.72
2023-01-08T02:12:56.760Z,2.70
2023-01-08T02:15:31.617Z,2.80
2023-01-08T02:18:07.326Z,2.72
2023-01-08T02:20:40.771Z,3.10
2023-01-08T02:23:26.390Z,2.70
2023-01-08T02:26:12.714Z,2.97
2023-01-08T02:28:46.277Z,3.08
2023-01-08T02:31:14.363Z,3.67
2023-01-08T02:33:41.410Z,2.80
2023-01-08T02:36:20.613Z,3.03
2023-01-08T02:38:59.200Z,3.15
2023-01-08T02:41:36.119Z,2.67
2023-01-08T02:44:05.690Z,2.72
2023-01-08T02:46:35.639Z,2.60
2023-01-08T02:49:07.652Z,3.15
2023-01-08T02:51:41.175Z,3.17
2023-01-08T02:54:15.461Z,2.20
2023-01-08T02:56:47.016Z,3.30
2023-01-08T02:59:14.733Z,3.00
2023-01-08T03:01:42.749Z,2.80
2023-01-08T03:04:20.745Z,2.67
2023-01-08T03:06:47.929Z,3.10
2023-01-08T03:09:16.149Z,3.28
2023-01-08T03:11:51.568Z,3.00
2023-01-08T03:14:36.266Z,2.50
2023-01-08T03:17:21.507Z,2.90
2023-01-08T03:20:02.898Z,2.95
2023-01-08T03:22:32.731Z,3.20
2023-01-08T03:24:59.367Z,3.10
2023-01-08T03:27:30.649Z,2.85
2023-01-08T03:29:59.471Z,2.63
2023-01-08T03:32:30.173Z,3.05
2023-01-08T03:34:59.340Z,2.70
2023-01-08T03:37:36.921Z,3.08
2023-01-08T03:40:09.448Z,2.90
2023-01-08T03:42:35.980Z,3.00
2023-01-08T03:45:03.534Z,2.53
2023-01-08T03:47:32.219Z,2.72
2023-01-08T03:50:03.095Z,2.97
2023-01-08T03:52:32.493Z,3.03
2023-01-08T03:54:59.322Z,2.70
2023-01-08T03:57:26.537Z,2.85
2023-01-08T03:59:52.989Z,2.58
2023-01-08T04:02:19.781Z,2.63
2023-01-08T04:04:48.152Z,2.80
2023-01-08T04:07:15.110Z,2.95
2023-01-08T04:09:41.982Z,2.67
2023-01-08T04:12:08.478Z,2.75
2023-01-08T04:14:35.501Z,2.70
2023-01-08T04:17:01.887Z,3.20
2023-01-08T04:19:28.386Z,2.42
2023-01-08T04:21:55.738Z,2.60
2023-01-08T04:24:22.158Z,2.42
2023-01-08T04:26:49.207Z,2.28
2023-01-08T04:29:15.728Z,2.65
2023-01-08T04:31:42.738Z,2.58
2023-01-08T04:34:10.010Z,2.80
2023-01-08T04:36:37.508Z,2.70
2023-01-08T04:39:04.988Z,2.70
2023-01-08T04:41:31.521Z,2.70
2023-01-08T04:43:58.197Z,2.72
2023-01-08T04:46:25.009Z,2.55
2023-01-08T04:48:52.065Z,3.05
2023-01-08T04:51:18.646Z,2.50
2023-01-08T04:53:46.290Z,2.55
2023-01-08T04:56:13.764Z,2.70
2023-01-08T04:58:40.813Z,2.55
2023-01-08T05:01:19.419Z,2.55
2023-01-08T05:03:46.351Z,2.95
2023-01-08T05:06:13.072Z,3.15
2023-01-08T05:08:39.980Z,3.05
2023-01-08T05:11:06.490Z,2.80
2023-01-08T05:13:33.699Z,2.78
2023-01-08T05:16:01.185Z,2.50
2023-01-08T05:18:29.624Z,2.60
2023-01-08T05:21:01.718Z,2.47
2023-01-08T05:23:30.105Z,2.65
2023-01-08T05:26:01.395Z,2.50
2023-01-08T05:28:29.050Z,2.80
2023-01-08T05:30:56.247Z,2.88
2023-01-08T05:33:23.565Z,2.67
2023-01-08T05:35:50.085Z,2.83
2023-01-08T05:38:16.814Z,3.00
2023-01-08T05:40:43.300Z,2.70
2023-01-08T05:43:09.859Z,2.75
2023-01-08T05:45:36.630Z,2.80
2023-01-08T05:48:07.468Z,2.65
2023-01-08T05:50:35.405Z,2.80
2023-01-08T05:53:05.552Z,3.00
2023-01-08T05:55:32.319Z,2.75
2023-01-08T05:58:02.642Z,3.00
2023-01-08T06:00:29.756Z,2.60
2023-01-08T06:02:56.196Z,3.42
2023-01-08T06:05:23.029Z,2.88
2023-01-08T06:07:50.071Z,3.67
2023-01-08T06:10:16.968Z,3.08
2023-01-08T06:12:43.673Z,3.35
2023-01-08T06:15:11.337Z,2.83
2023-01-08T06:17:38.065Z,2.70
2023-01-08T06:20:05.717Z,2.65
2023-01-08T06:22:33.671Z,2.80
2023-01-08T06:25:00.710Z,2.97
2023-01-08T06:27:27.224Z,2.60
2023-01-08T06:29:53.687Z,3.03
2023-01-08T06:32:20.581Z,2.67
2023-01-08T06:34:47.036Z,2.97
2023-01-08T06:37:14.359Z,2.97
2023-01-08T06:39:41.113Z,2.88
2023-01-08T06:42:07.533Z,2.80
2023-01-08T06:44:34.757Z,3.33
2023-01-08T06:47:01.257Z,3.45
2023-01-08T06:49:28.160Z,3.30
2023-01-08T06:51:54.977Z,2.72
2023-01-08T06:54:21.863Z,2.63
2023-01-08T06:56:54.027Z,3.20
2023-01-08T06:59:22.046Z,2.85
2023-01-08T07:01:49.494Z,2.72
2023-01-08T07:04:17.198Z,2.90
2023-01-08T07:06:43.939Z,3.13
2023-01-08T07:09:13.477Z,3.28
2023-01-08T07:11:41.085Z,2.87
2023-01-08T07:14:08.565Z,3.35
2023-01-08T07:16:36.125Z,3.28
2023-01-08T07:19:03.497Z,3.65
2023-01-08T07:21:31.021Z,3.50
2023-01-08T07:23:59.350Z,3.75
2023-01-08T07:26:26.349Z,3.70
2023-01-08T07:28:52.916Z,3.88
2023-01-08T07:31:19.928Z,4.35
2023-01-08T07:33:46.440Z,3.40
2023-01-08T07:36:13.417Z,3.53
2023-01-08T07:38:40.017Z,3.30
2023-01-08T07:41:07.374Z,3.58
2023-01-08T07:43:35.221Z,3.20
2023-01-08T07:46:03.922Z,3.15
2023-01-08T07:48:30.467Z,3.15
2023-01-08T07:51:10.311Z,3.70
2023-01-08T07:53:37.933Z,3.03
2023-01-08T07:56:07.810Z,3.35
2023-01-08T07:58:35.225Z,3.60
2023-01-08T08:01:02.805Z,3.40
2023-01-08T08:03:29.366Z,2.90
2023-01-08T08:05:55.829Z,2.95
2023-01-08T08:08:22.655Z,3.40
2023-01-08T08:10:49.695Z,3.13
2023-01-08T08:13:16.298Z,2.95
2023-01-08T08:15:43.280Z,3.25
2023-01-08T08:18:09.903Z,3.22
2023-01-08T08:20:37.084Z,2.67
2023-01-08T08:23:07.549Z,2.60
2023-01-08T08:28:02.350Z,2.58
2023-01-08T08:30:31.234Z,3.05
2023-01-08T08:33:02.965Z,2.47
2023-01-08T08:35:30.358Z,3.58
2023-01-08T08:37:57.941Z,3.33
2023-01-08T08:40:26.039Z,2.72
2023-01-08T08:43:00.401Z,3.13
2023-01-08T08:45:28.289Z,3.30
2023-01-08T08:47:54.770Z,2.92
2023-01-08T08:50:21.945Z,3.08
2023-01-08T08:52:49.155Z,3.00
2023-01-08T08:55:17.249Z,3.65
2023-01-08T08:57:45.702Z,2.75
2023-01-08T09:00:13.766Z,3.60
2023-01-08T09:02:40.815Z,3.47
2023-01-08T09:05:08.061Z,3.25
2023-01-08T09:07:35.164Z,3.22
2023-01-08T09:10:02.661Z,3.20
2023-01-08T09:12:29.424Z,3.60
2023-01-08T09:14:57.388Z,3.38
2023-01-08T09:17:25.600Z,3.13
2023-01-08T09:19:53.106Z,2.83
2023-01-08T09:22:20.121Z,2.92
2023-01-08T09:24:46.799Z,3.13
2023-01-08T09:27:14.339Z,2.92
2023-01-08T09:29:40.828Z,2.85
2023-01-08T09:32:07.950Z,2.95
2023-01-08T09:34:36.173Z,2.83
2023-01-08T09:37:04.064Z,2.90
2023-01-08T09:39:30.994Z,2.83
2023-01-08T09:42:00.855Z,3.10
2023-01-08T09:44:31.285Z,3.03
2023-01-08T09:49:47.735Z,3.30
2023-01-08T09:52:15.182Z,3.15
2023-01-08T09:54:42.179Z,2.63
2023-01-08T09:57:20.284Z,2.78
2023-01-08T09:59:48.316Z,3.45
2023-01-08T10:02:21.700Z,3.03
2023-01-08T10:04:54.592Z,2.75
2023-01-08T10:07:24.793Z,2.65
2023-01-08T10:09:52.693Z,2.58
2023-01-08T10:12:27.763Z,2.72
2023-01-08T10:14:58.711Z,2.40
2023-01-08T10:17:34.165Z,2.50
2023-01-08T10:20:00.673Z,2.55
2023-01-08T10:22:32.969Z,2.40
2023-01-08T10:25:15.443Z,2.30
2023-01-08T10:27:52.623Z,2.35
2023-01-08T10:30:22.587Z,2.60
2023-01-08T10:32:55.579Z,2.63
2023-01-08T10:35:33.878Z,2.53
2023-01-08T10:38:01.688Z,2.15
2023-01-08T10:40:45.652Z,2.50
2023-01-08T10:43:18.940Z,2.20
2023-01-08T10:45:57.293Z,2.80
2023-01-08T10:48:29.821Z,2.67
2023-01-08T10:51:15.589Z,2.45
2023-01-08T10:53:42.557Z,2.45
2023-01-08T10:56:26.683Z,2.35
2023-01-08T10:58:53.904Z,2.35
2023-01-08T11:01:24.269Z,2.17
2023-01-08T11:03:53.569Z,2.40
2023-01-08T11:06:27.515Z,2.00
2023-01-08T11:09:03.208Z,2.13
2023-01-08T11:11:35.074Z,1.98
2023-01-08T11:14:04.856Z,2.45
2023-01-08T11:16:39.004Z,2.22
2023-01-08T11:19:16.530Z,2.00
2023-01-08T11:21:53.960Z,1.80
2023-01-08T11:24:32.245Z,1.80
2023-01-08T11:27:10.375Z,2.00
2023-01-08T11:29:44.269Z,1.90
2023-01-08T11:32:25.251Z,2.30
2023-01-08T11:35:08.889Z,2.22
2023-01-08T11:37:39.556Z,2.10
2023-01-08T11:40:39.605Z,1.80
2023-01-08T11:43:25.038Z,1.90
2023-01-08T11:46:26.966Z,1.65
2023-01-08T11:49:26.038Z,2.40
2023-01-08T11:52:07.928Z,1.85
2023-01-08T11:54:40.540Z,2.55
2023-01-08T11:57:25.321Z,2.00
2023-01-08T12:00:19.882Z,2.30
2023-01-08T12:02:49.593Z,2.05
2023-01-08T12:05:50.514Z,2.15
2023-01-08T12:08:33.958Z,2.03
2023-01-08T12:11:36.950Z,2.28
2023-01-08T12:14:32.758Z,2.30
2023-01-08T12:17:18.616Z,2.00
2023-01-08T12:20:22.904Z,1.98
2023-01-08T12:23:28.335Z,1.92
2023-01-08T12:26:16.466Z,1.73
2023-01-08T12:29:06.603Z,1.95
2023-01-08T12:32:06.756Z,2.00
2023-01-08T12:34:42.669Z,2.22
2023-01-08T12:37:22.982Z,2.33
2023-01-08T12:40:07.544Z,2.10
2023-01-08T12:42:42.660Z,2.25
2023-01-08T12:45:21.167Z,2.50
2023-01-08T12:47:57.188Z,2.10
2023-01-08T12:50:46.712Z,1.83
2023-01-08T12:53:37.499Z,2.70
2023-01-08T12:58:53.818Z,1.35
2023-01-08T13:01:33.365Z,1.48
2023-01-08T13:04:02.153Z,1.58
2023-01-08T13:06:28.766Z,1.33
2023-01-08T13:08:57.236Z,1.30
2023-01-08T13:11:26.471Z,1.40
2023-01-08T13:14:02.902Z,1.25
2023-01-08T13:16:33.710Z,1.30
2023-01-08T13:19:04.359Z,1.40
2023-01-08T13:21:37.247Z,1.35
2023-01-08T13:24:21.112Z,1.15
2023-01-08T13:26:48.023Z,1.40
2023-01-08T13:29:26.267Z,1.98
2023-01-08T13:31:53.225Z,1.73
2023-01-08T13:34:33.726Z,1.30
2023-01-08T13:37:00.908Z,1.35
2023-01-08T13:39:38.678Z,1.40
2023-01-08T13:42:13.084Z,1.63
2023-01-08T13:44:42.772Z,2.05
2023-01-08T13:47:23.803Z,1.83
2023-01-08T13:49:53.845Z,1.80
2023-01-08T13:52:47.062Z,1.85
2023-01-08T13:55:39.628Z,1.90
2023-01-08T13:58:16.679Z,2.08
2023-01-08T14:00:43.249Z,2.10
2023-01-08T14:03:37.580Z,1.80
2023-01-08T14:06:16.407Z,1.60
2023-01-08T14:08:57.357Z,1.60
2023-01-08T14:11:27.909Z,1.52
2023-01-08T14:13:55.582Z,1.67
2023-01-08T14:16:22.463Z,1.67
2023-01-08T14:18:50.208Z,1.38
2023-01-08T14:21:22.803Z,1.45
2023-01-08T14:23:51.462Z,1.90
2023-01-08T14:26:32.745Z,1.73
2023-01-08T14:29:01.426Z,1.90
2023-01-08T14:31:28.911Z,1.50
2023-01-08T14:33:58.337Z,1.23
2023-01-08T14:36:26.786Z,1.30
2023-01-08T14:38:53.695Z,1.83
2023-01-08T14:41:52.961Z,1.20
2023-01-08T14:44:36.275Z,1.25
2023-01-08T14:47:05.279Z,1.30
2023-01-08T14:49:40.632Z,1.20
2023-01-08T14:52:13.167Z,1.20
2023-01-08T14:54:39.970Z,1.23
2023-01-08T14:57:07.002Z,1.55
2023-01-08T14:59:37.647Z,1.70
2023-01-08T15:02:13.378Z,1.40
2023-01-08T15:04:39.860Z,1.60
2023-01-08T15:07:28.203Z,1.60
2023-01-08T15:10:01.166Z,1.50
2023-01-08T15:12:33.247Z,1.20
2023-01-08T15:15:22.237Z,1.45
2023-01-08T15:17:49.794Z,1.58
2023-01-08T15:20:18.879Z,1.60
2023-01-08T15:22:46.504Z,1.85
2023-01-08T15:25:18.828Z,1.08
2023-01-08T15:28:01.937Z,1.88
2023-01-08T15:30:38.160Z,1.10
2023-01-08T15:33:16.995Z,1.23
2023-01-08T15:35:43.598Z,1.17
2023-01-08T15:38:10.620Z,1.50
2023-01-08T15:40:37.648Z,1.30
2023-01-08T15:43:10.526Z,0.90
2023-01-08T15:45:42.110Z,1.38
2023-01-08T15:48:10.381Z,1.27
2023-01-08T15:50:40.169Z,1.35
2023-01-08T15:53:14.066Z,1.00
2023-01-08T15:55:43.744Z,1.10
2023-01-08T15:58:12.186Z,1.00
2023-01-08T16:00:39.995Z,1.20
2023-01-08T16:03:07.473Z,1.00
2023-01-08T16:05:34.998Z,1.30
2023-01-08T16:08:01.595Z,1.95
2023-01-08T16:10:29.128Z,1.38
2023-01-08T16:12:55.570Z,1.30
2023-01-08T16:15:22.819Z,1.30
2023-01-08T16:17:49.533Z,1.30
2023-01-08T16:20:16.955Z,1.30
2023-01-08T16:22:43.781Z,1.23
2023-01-08T16:25:10.855Z,1.52
2023-01-08T16:27:39.385Z,1.30
2023-01-08T16:30:15.432Z,1.20
2023-01-08T16:32:42.837Z,1.00
2023-01-08T16:35:10.676Z,1.38
2023-01-08T16:37:37.517Z,1.15
2023-01-08T16:40:04.534Z,1.20
2023-01-08T16:42:31.169Z,1.30
2023-01-08T16:44:57.862Z,1.40
2023-01-08T16:47:24.493Z,1.35
2023-01-08T16:49:51.069Z,1.90
2023-01-08T16:52:17.913Z,1.25
2023-01-08T16:54:46.072Z,1.20
2023-01-08T16:57:12.750Z,1.48
2023-01-08T16:59:39.374Z,0.98
2023-01-08T17:02:06.429Z,1.50
2023-01-08T17:04:33.128Z,1.52
2023-01-08T17:06:59.646Z,1.58
2023-01-08T17:09:26.305Z,1.38
2023-01-08T17:11:52.837Z,1.50
2023-01-08T17:14:19.576Z,2.00
2023-01-08T17:16:47.367Z,1.45
2023-01-08T17:19:13.839Z,1.80
2023-01-08T17:21:40.613Z,1.17
2023-01-08T17:24:07.691Z,1.50
2023-01-08T17:26:34.154Z,1.58
2023-01-08T17:29:00.800Z,1.40
2023-01-08T17:31:27.301Z,1.40
2023-01-08T17:33:54.662Z,1.60
2023-01-08T17:36:26.497Z,1.55
2023-01-08T17:38:54.254Z,1.65
2023-01-08T17:41:41.288Z,1.67
2023-01-08T17:44:09.545Z,1.10
2023-01-08T17:46:37.725Z,1.23
2023-01-08T17:49:05.521Z,1.50
2023-01-08T17:51:33.352Z,1.52
2023-01-08T17:53:59.945Z,1.40
2023-01-08T17:56:26.968Z,1.40
2023-01-08T17:58:53.497Z,1.30
2023-01-08T18:01:20.392Z,1.30
2023-01-08T18:03:47.242Z,1.42
2023-01-08T18:06:13.890Z,1.60
2023-01-08T18:08:41.591Z,1.40
2023-01-08T18:11:10.213Z,1.85
2023-01-08T18:13:37.400Z,1.60
2023-01-08T18:16:09.471Z,2.17
2023-01-08T18:18:36.605Z,1.75
2023-01-08T18:21:04.687Z,1.70
2023-01-08T18:23:31.527Z,2.17
2023-01-08T18:26:05.103Z,1.80
2023-01-08T18:28:32.139Z,1.70
2023-01-08T18:31:00.114Z,1.67
2023-01-08T18:33:27.586Z,1.13
2023-01-08T18:35:54.356Z,1.10
2023-01-08T18:38:20.886Z,0.90
2023-01-08T18:40:48.598Z,0.82
2023-01-08T18:43:15.091Z,0.70
2023-01-08T18:45:42.308Z,0.80
2023-01-08T18:48:09.479Z,0.77
2023-01-08T18:50:40.710Z,0.70
2023-01-08T18:53:09.019Z,0.85
2023-01-08T18:55:36.771Z,0.90
2023-01-08T18:58:04.882Z,0.90
2023-01-08T19:00:31.628Z,0.77
2023-01-08T19:02:58.131Z,0.80
2023-01-08T19:05:24.922Z,0.80
2023-01-08T19:07:52.181Z,0.88
2023-01-08T19:10:18.788Z,1.27
2023-01-08T19:12:45.468Z,0.98
2023-01-08T19:15:12.520Z,1.27
2023-01-08T19:17:39.180Z,1.02
2023-01-08T19:20:06.378Z,1.08
2023-01-08T19:22:33.115Z,1.10
2023-01-08T19:24:59.715Z,1.52
2023-01-08T19:27:26.287Z,1.10
2023-01-08T19:29:53.145Z,1.30
2023-01-08T19:32:19.720Z,0.90
2023-01-08T19:34:47.392Z,1.67
2023-01-08T19:37:14.804Z,1.15
2023-01-08T19:39:41.693Z,1.42
2023-01-08T19:42:28.817Z,1.20
2023-01-08T19:44:56.396Z,1.33
2023-01-08T19:47:23.566Z,1.58
2023-01-08T19:49:50.090Z,1.23
2023-01-08T19:52:17.355Z,1.00
2023-01-08T19:54:43.901Z,1.25
2023-01-08T19:57:10.339Z,1.10
2023-01-08T19:59:37.011Z,1.38
2023-01-08T20:02:03.806Z,1.10
2023-01-08T20:04:31.244Z,1.30
2023-01-08T20:06:59.203Z,1.17
2023-01-08T20:09:25.672Z,1.10
2023-01-08T20:11:52.129Z,1.20
2023-01-08T20:14:20.809Z,1.20
2023-01-08T20:16:47.793Z,1.23
2023-01-08T20:19:14.819Z,1.35
2023-01-08T20:21:41.495Z,0.88
2023-01-08T20:24:12.661Z,1.10
2023-01-08T20:26:39.927Z,1.33
2023-01-08T20:29:07.240Z,1.35
2023-01-08T20:31:35.204Z,1.40
2023-01-08T20:34:07.354Z,0.90
2023-01-08T20:36:34.456Z,1.10
2023-01-08T20:39:07.281Z,1.40
2023-01-08T20:41:34.284Z,1.25
2023-01-08T20:44:05.432Z,1.00
2023-01-08T20:46:33.737Z,1.02
2023-01-08T20:49:04.851Z,1.25
2023-01-08T20:51:33.499Z,1.35
2023-01-08T20:54:01.286Z,0.90
2023-01-08T20:56:27.912Z,1.05
2023-01-08T20:58:54.648Z,1.20
2023-01-08T21:01:23.677Z,1.20
2023-01-08T21:03:54.117Z,1.05
2023-01-08T21:08:51.626Z,1.15
2023-01-08T21:11:19.241Z,1.20
2023-01-08T21:13:45.999Z,1.10
2023-01-08T21:16:19.919Z,1.42
2023-01-08T21:18:48.177Z,1.08
2023-01-08T21:21:23.127Z,1.50
2023-01-08T21:23:50.096Z,1.30
2023-01-08T21:26:17.676Z,1.90
2023-01-08T21:28:45.466Z,1.20
2023-01-08T21:31:18.806Z,1.50
2023-01-08T21:33:48.714Z,1.20
2023-01-08T21:36:23.845Z,1.33
2023-01-08T21:38:50.785Z,1.40
2023-01-08T21:41:39.270Z,1.30
2023-01-08T21:44:34.364Z,1.60
2023-01-08T21:47:01.591Z,1.67
2023-01-08T21:49:28.917Z,1.42
2023-01-08T21:52:14.141Z,1.23
2023-01-08T21:54:41.718Z,1.38
2023-01-08T21:57:09.515Z,1.50
2023-01-08T21:59:36.169Z,1.83
2023-01-08T22:02:03.584Z,1.30
2023-01-08T22:04:30.453Z,1.80
2023-01-08T22:06:57.258Z,1.63
2023-01-08T22:09:23.802Z,1.52
2023-01-08T22:11:50.682Z,1.85
2023-01-08T22:14:17.346Z,1.80
2023-01-08T22:16:43.988Z,1.40
2023-01-08T22:19:10.814Z,1.67
2023-01-08T22:21:38.675Z,1.70
2023-01-08T22:24:05.953Z,1.67
2023-01-08T22:26:34.988Z,1.80
2023-01-08T22:29:03.249Z,1.83
2023-01-08T22:31:29.892Z,1.60
2023-01-08T22:33:57.318Z,1.60
2023-01-08T22:36:24.608Z,1.48
2023-01-08T22:38:51.142Z,1.25
2023-01-08T22:41:23.975Z,1.40
2023-01-08T22:43:58.284Z,1.25
2023-01-08T22:46:25.297Z,1.20
2023-01-08T22:48:51.844Z,1.65
2023-01-08T22:51:22.717Z,1.30
2023-01-08T22:53:49.431Z,1.40
2023-01-08T22:56:15.876Z,1.20
2023-01-08T22:58:45.277Z,1.50
2023-01-08T23:01:13.082Z,1.13
2023-01-08T23:03:43.173Z,1.15
2023-01-08T23:06:17.349Z,1.30
2023-01-08T23:08:45.208Z,1.27
2023-01-08T23:11:15.037Z,1.40
2023-01-08T23:13:42.709Z,1.85
2023-01-08T23:16:14.829Z,2.10
2023-01-08T23:18:42.417Z,2.05
2023-01-08T23:21:13.275Z,1.80
2023-01-08T23:23:39.872Z,2.22
2023-01-08T23:26:12.702Z,2.00
2023-01-08T23:28:39.682Z,2.05
2023-01-08T23:31:11.103Z,2.05
2023-01-08T23:33:37.585Z,1.55
2023-01-08T23:36:04.823Z,1.50
2023-01-08T23:38:31.690Z,1.35
2023-01-08T23:40:58.497Z,1.58
2023-01-08T23:43:25.138Z,1.17
2023-01-08T23:45:52.789Z,1.23
2023-01-08T23:48:19.776Z,1.50
2023-01-08T23:50:46.320Z,1.13
2023-01-08T23:53:13.053Z,1.38
2023-01-08T23:55:39.683Z,1.25
2023-01-08T23:58:06.588Z,1.35
